TAM3020 SCTE-SPSO
Flight info
| Callsign | TAM3020 |
|---|---|
| Flight time | N/A |
| Altitude | 38000 |
| Route | KIKOP2B KIKOP UV200 PANEX UT105 CAR UT134 ATEDA/N0482F400 UL302 ILMAR |
| Aircraft | B77L/H-SDE1E2E3FGHIJ2J3J4J5M1RWXY/LB1D1 |
Departure
| Time | 2026-04-20 10:26 |
|---|---|
| Airport | El Tepual International Airport (SCTE) |
Arrival
| Time | N/A |
|---|---|
| Airport | Captain Renán Elías Olivera International Airport (SPSO) |
| Time | Latitude | Longitude | Altitude | Speed | Heading |
|---|---|---|---|---|---|
| 2026-04-20 09:54 | -41.43257 | -73.09739 | 278 ft | 0 kts | 271° |
| 2026-04-20 10:15 | -41.43257 | -73.09732 | 282 ft | 2 kts | 271° |
| 2026-04-20 10:15 | -41.43260 | -73.09711 | 277 ft | 2 kts | 314° |
| 2026-04-20 10:16 | -41.43270 | -73.09703 | 280 ft | 0 kts | 4° |
| 2026-04-20 10:21 | -41.43268 | -73.09701 | 274 ft | 1 kts | 18° |
| 2026-04-20 10:21 | -41.43264 | -73.09694 | 274 ft | 2 kts | 51° |
| 2026-04-20 10:21 | -41.43256 | -73.09672 | 274 ft | 3 kts | 65° |
| 2026-04-20 10:22 | -41.43242 | -73.09637 | 274 ft | 5 kts | 60° |
| 2026-04-20 10:22 | -41.43209 | -73.09606 | 273 ft | 7 kts | 21° |
| 2026-04-20 10:22 | -41.43159 | -73.09591 | 273 ft | 8 kts | 9° |
| 2026-04-20 10:22 | -41.43094 | -73.09585 | 272 ft | 10 kts | 1° |
| 2026-04-20 10:23 | -41.43019 | -73.09587 | 271 ft | 12 kts | 359° |
| 2026-04-20 10:23 | -41.42933 | -73.09585 | 270 ft | 13 kts | 2° |
| 2026-04-20 10:23 | -41.42838 | -73.09581 | 269 ft | 14 kts | 1° |
| 2026-04-20 10:23 | -41.42753 | -73.09572 | 268 ft | 10 kts | 15° |
| 2026-04-20 10:24 | -41.42713 | -73.09501 | 268 ft | 2 kts | 76° |
| 2026-04-20 10:25 | -41.42712 | -73.09492 | 268 ft | 2 kts | 79° |
| 2026-04-20 10:25 | -41.42710 | -73.09441 | 267 ft | 11 kts | 95° |
| 2026-04-20 10:25 | -41.42762 | -73.09362 | 268 ft | 12 kts | 169° |
| 2026-04-20 10:25 | -41.42769 | -73.09360 | 269 ft | 3 kts | 173° |
| 2026-04-20 10:26 | -41.43038 | -73.09362 | 271 ft | 94 kts | 181° |
| 2026-04-20 10:26 | -41.44092 | -73.09419 | 416 ft | 192 kts | 182° |
| 2026-04-20 10:26 | -41.45357 | -73.09492 | 1932 ft | 173 kts | 183° |
| 2026-04-20 10:26 | -41.46545 | -73.09949 | 2876 ft | 197 kts | 216° |
| 2026-04-20 10:27 | -41.47346 | -73.11588 | 3209 ft | 235 kts | 257° |
| 2026-04-20 10:27 | -41.47111 | -73.13846 | 3846 ft | 262 kts | 297° |
| 2026-04-20 10:27 | -41.45834 | -73.15605 | 5040 ft | 271 kts | 329° |
| 2026-04-20 10:27 | -41.44040 | -73.16383 | 6225 ft | 274 kts | 348° |
| 2026-04-20 10:28 | -41.42140 | -73.16849 | 7316 ft | 281 kts | 348° |
| 2026-04-20 10:28 | -41.40214 | -73.17354 | 8540 ft | 283 kts | 347° |
| 2026-04-20 10:28 | -41.38279 | -73.17907 | 9775 ft | 287 kts | 346° |
| 2026-04-20 10:28 | -41.36306 | -73.18507 | 10770 ft | 297 kts | 346° |
| 2026-04-20 10:29 | -41.34230 | -73.19169 | 11229 ft | 328 kts | 345° |
| 2026-04-20 10:29 | -41.31900 | -73.19936 | 11512 ft | 362 kts | 345° |
| 2026-04-20 10:29 | -41.29374 | -73.20779 | 12173 ft | 382 kts | 345° |
| 2026-04-20 10:29 | -41.26768 | -73.21602 | 13124 ft | 387 kts | 350° |
| 2026-04-20 10:30 | -41.24052 | -73.21545 | 13995 ft | 399 kts | 13° |
| 2026-04-20 10:30 | -41.21406 | -73.20415 | 14813 ft | 402 kts | 19° |
| 2026-04-20 10:30 | -41.18713 | -73.19273 | 15710 ft | 411 kts | 17° |
| 2026-04-20 10:30 | -41.15952 | -73.18176 | 16745 ft | 416 kts | 17° |
| 2026-04-20 10:31 | -41.13193 | -73.17102 | 17755 ft | 422 kts | 17° |
| 2026-04-20 10:31 | -41.10352 | -73.15999 | 18670 ft | 429 kts | 17° |
| 2026-04-20 10:31 | -41.07462 | -73.14875 | 19466 ft | 437 kts | 18° |
| 2026-04-20 10:31 | -41.04523 | -73.13730 | 20294 ft | 443 kts | 18° |
| 2026-04-20 10:32 | -41.01551 | -73.12570 | 21117 ft | 449 kts | 18° |
| 2026-04-20 10:32 | -40.98532 | -73.11392 | 21925 ft | 455 kts | 18° |
| 2026-04-20 10:32 | -40.95469 | -73.10199 | 22721 ft | 462 kts | 18° |
| 2026-04-20 10:32 | -40.92346 | -73.09096 | 23511 ft | 470 kts | 12° |
| 2026-04-20 10:33 | -40.89057 | -73.08752 | 24199 ft | 479 kts | 2° |
| 2026-04-20 10:33 | -40.85703 | -73.08810 | 24839 ft | 484 kts | 0° |
| 2026-04-20 10:33 | -40.82312 | -73.08924 | 25482 ft | 490 kts | 0° |
| 2026-04-20 10:33 | -40.78883 | -73.09019 | 26113 ft | 496 kts | 1° |
| 2026-04-20 10:34 | -40.75420 | -73.09072 | 26744 ft | 501 kts | 2° |
| 2026-04-20 10:34 | -40.71907 | -73.09085 | 27374 ft | 506 kts | 3° |
| 2026-04-20 10:34 | -40.68371 | -73.09071 | 27968 ft | 512 kts | 3° |
| 2026-04-20 10:35 | -40.61166 | -73.09014 | 29135 ft | 522 kts | 4° |
| 2026-04-20 10:35 | -40.57514 | -73.08986 | 29674 ft | 527 kts | 4° |
| 2026-04-20 10:35 | -40.53833 | -73.08960 | 30191 ft | 532 kts | 4° |
| 2026-04-20 10:35 | -40.50124 | -73.08937 | 30723 ft | 534 kts | 4° |
| 2026-04-20 10:36 | -40.46408 | -73.08917 | 31355 ft | 532 kts | 4° |
| 2026-04-20 10:36 | -40.42716 | -73.08898 | 32082 ft | 529 kts | 4° |
| 2026-04-20 10:36 | -40.39049 | -73.08879 | 32789 ft | 526 kts | 4° |
| 2026-04-20 10:36 | -40.35388 | -73.08857 | 33443 ft | 525 kts | 4° |
| 2026-04-20 10:37 | -40.31742 | -73.08834 | 34051 ft | 524 kts | 4° |
| 2026-04-20 10:37 | -40.28107 | -73.08812 | 34605 ft | 522 kts | 4° |
| 2026-04-20 10:37 | -40.24481 | -73.08792 | 35186 ft | 519 kts | 4° |
| 2026-04-20 10:37 | -40.20884 | -73.08778 | 35812 ft | 515 kts | 3° |
| 2026-04-20 10:38 | -40.17316 | -73.08768 | 36430 ft | 511 kts | 2° |
| 2026-04-20 10:38 | -40.13766 | -73.08758 | 36994 ft | 508 kts | 2° |
| 2026-04-20 10:38 | -40.10240 | -73.08747 | 37523 ft | 506 kts | 2° |
| 2026-04-20 10:38 | -40.06733 | -73.08736 | 38103 ft | 502 kts | 1° |
| 2026-04-20 10:39 | -40.03226 | -73.08724 | 38214 ft | 507 kts | 1° |
| 2026-04-20 10:39 | -39.96177 | -73.08699 | 38187 ft | 504 kts | 1° |
| 2026-04-20 10:40 | -39.89258 | -73.08676 | 38195 ft | 499 kts | 1° |
| 2026-04-20 10:40 | -39.82324 | -73.08652 | 38202 ft | 498 kts | 1° |
| 2026-04-20 10:41 | -39.75394 | -73.08629 | 38200 ft | 498 kts | 1° |
| 2026-04-20 10:41 | -39.68457 | -73.08605 | 38200 ft | 499 kts | 1° |
| 2026-04-20 10:42 | -39.61516 | -73.08604 | 38207 ft | 499 kts | 0° |
| 2026-04-20 10:42 | -39.54566 | -73.08639 | 38203 ft | 500 kts | 0° |
| 2026-04-20 10:43 | -39.47609 | -73.08673 | 38185 ft | 500 kts | 0° |
| 2026-04-20 10:43 | -39.40646 | -73.08701 | 38199 ft | 500 kts | 0° |
| 2026-04-20 10:44 | -39.33688 | -73.08727 | 38195 ft | 500 kts | 0° |
| 2026-04-20 10:44 | -39.26734 | -73.08753 | 38204 ft | 499 kts | 0° |
| 2026-04-20 10:45 | -39.19795 | -73.08779 | 38206 ft | 498 kts | 360° |
| 2026-04-20 10:45 | -39.12875 | -73.08804 | 38182 ft | 496 kts | 360° |
| 2026-04-20 10:46 | -39.05986 | -73.08830 | 38190 ft | 494 kts | 360° |
| 2026-04-20 10:46 | -38.99118 | -73.08855 | 38198 ft | 493 kts | 359° |
| 2026-04-20 10:47 | -38.92271 | -73.08880 | 38188 ft | 491 kts | 359° |
| 2026-04-20 10:47 | -38.85441 | -73.08905 | 38192 ft | 490 kts | 359° |
| 2026-04-20 10:48 | -38.78630 | -73.08930 | 38195 ft | 489 kts | 359° |
| 2026-04-20 10:48 | -38.71821 | -73.08956 | 38198 ft | 489 kts | 359° |
| 2026-04-20 10:49 | -38.65018 | -73.08980 | 38199 ft | 489 kts | 359° |
| 2026-04-20 10:49 | -38.58212 | -73.09005 | 38203 ft | 489 kts | 359° |
| 2026-04-20 10:50 | -38.51447 | -73.09030 | 38218 ft | 489 kts | 358° |
| 2026-04-20 10:50 | -38.44644 | -73.09055 | 38196 ft | 489 kts | 358° |
| 2026-04-20 10:51 | -38.37851 | -73.09080 | 38198 ft | 488 kts | 359° |
| 2026-04-20 10:51 | -38.31065 | -73.09104 | 38206 ft | 487 kts | 358° |
| 2026-04-20 10:52 | -38.24285 | -73.09128 | 38193 ft | 487 kts | 358° |
| 2026-04-20 10:52 | -38.17520 | -73.09153 | 38199 ft | 486 kts | 358° |
| 2026-04-20 10:53 | -38.10759 | -73.09177 | 38189 ft | 486 kts | 358° |
| 2026-04-20 10:53 | -38.04010 | -73.09202 | 38194 ft | 485 kts | 358° |
| 2026-04-20 10:54 | -37.97266 | -73.09226 | 38203 ft | 484 kts | 358° |
| 2026-04-20 10:54 | -37.90538 | -73.09250 | 38193 ft | 483 kts | 358° |
| 2026-04-20 10:55 | -37.83824 | -73.09274 | 38201 ft | 482 kts | 358° |
| 2026-04-20 10:55 | -37.77109 | -73.09298 | 38195 ft | 482 kts | 358° |
| 2026-04-20 10:56 | -37.70441 | -73.09154 | 38186 ft | 482 kts | 0° |
| 2026-04-20 10:56 | -37.63735 | -73.08833 | 38185 ft | 482 kts | 0° |
| 2026-04-20 10:57 | -37.57024 | -73.08523 | 38169 ft | 483 kts | 0° |
| 2026-04-20 10:57 | -37.50313 | -73.08245 | 38177 ft | 483 kts | 360° |
| 2026-04-20 10:58 | -37.43594 | -73.07979 | 38186 ft | 483 kts | 360° |
| 2026-04-20 10:58 | -37.36877 | -73.07714 | 38164 ft | 484 kts | 360° |
| 2026-04-20 10:59 | -37.30138 | -73.07447 | 38159 ft | 485 kts | 360° |
| 2026-04-20 10:59 | -37.23387 | -73.07180 | 38166 ft | 486 kts | 360° |
| 2026-04-20 11:00 | -37.16630 | -73.06913 | 38167 ft | 486 kts | 359° |
| 2026-04-20 11:00 | -37.09873 | -73.06645 | 38165 ft | 486 kts | 359° |
| 2026-04-20 11:01 | -37.03158 | -73.06381 | 38152 ft | 486 kts | 359° |
| 2026-04-20 11:01 | -36.96410 | -73.06116 | 38161 ft | 485 kts | 359° |
| 2026-04-20 11:02 | -36.89670 | -73.05851 | 38150 ft | 484 kts | 359° |
| 2026-04-20 11:02 | -36.82944 | -73.05588 | 38160 ft | 483 kts | 359° |
| 2026-04-20 11:03 | -36.76230 | -73.05325 | 38161 ft | 482 kts | 359° |
| 2026-04-20 11:03 | -36.69523 | -73.04932 | 38147 ft | 482 kts | 0° |
| 2026-04-20 11:04 | -36.62824 | -73.04406 | 38153 ft | 482 kts | 0° |
| 2026-04-20 11:04 | -36.56137 | -73.03889 | 38155 ft | 481 kts | 0° |
| 2026-04-20 11:05 | -36.49453 | -73.03397 | 38153 ft | 481 kts | 360° |
| 2026-04-20 11:05 | -36.42767 | -73.02915 | 38151 ft | 481 kts | 359° |
| 2026-04-20 11:06 | -36.36094 | -73.02434 | 38149 ft | 481 kts | 359° |
| 2026-04-20 11:06 | -36.30541 | -73.02034 | 38151 ft | 481 kts | 359° |
| 2026-04-20 11:07 | -36.23869 | -73.01553 | 38135 ft | 480 kts | 359° |
| 2026-04-20 11:07 | -36.17194 | -73.01073 | 38153 ft | 480 kts | 359° |
| 2026-04-20 11:08 | -36.10521 | -73.00594 | 38147 ft | 480 kts | 359° |
| 2026-04-20 11:08 | -36.03847 | -73.00116 | 38147 ft | 480 kts | 359° |
| 2026-04-20 11:09 | -35.97178 | -72.99638 | 38145 ft | 480 kts | 358° |
| 2026-04-20 11:09 | -35.90511 | -72.99162 | 38148 ft | 480 kts | 358° |
| 2026-04-20 11:10 | -35.83848 | -72.98687 | 38146 ft | 479 kts | 358° |
| 2026-04-20 11:10 | -35.77188 | -72.98213 | 38151 ft | 479 kts | 358° |
| 2026-04-20 11:11 | -35.70535 | -72.97739 | 38143 ft | 479 kts | 358° |
| 2026-04-20 11:11 | -35.63885 | -72.97263 | 38151 ft | 479 kts | 358° |
| 2026-04-20 11:12 | -35.57234 | -72.96787 | 38149 ft | 479 kts | 358° |
| 2026-04-20 11:12 | -35.50585 | -72.96312 | 38121 ft | 478 kts | 357° |
| 2026-04-20 11:13 | -35.43945 | -72.95839 | 38146 ft | 478 kts | 357° |
| 2026-04-20 11:13 | -35.37312 | -72.95368 | 38162 ft | 478 kts | 357° |
| 2026-04-20 11:14 | -35.30720 | -72.94898 | 38147 ft | 477 kts | 357° |
| 2026-04-20 11:14 | -35.24110 | -72.94428 | 38142 ft | 475 kts | 357° |
| 2026-04-20 11:15 | -35.17519 | -72.93963 | 38143 ft | 473 kts | 357° |
| 2026-04-20 11:15 | -35.10956 | -72.93500 | 38146 ft | 471 kts | 357° |
| 2026-04-20 11:16 | -35.04415 | -72.93040 | 38143 ft | 470 kts | 357° |
| 2026-04-20 11:16 | -34.97890 | -72.92580 | 38150 ft | 469 kts | 356° |
| 2026-04-20 11:17 | -34.91380 | -72.92123 | 38153 ft | 468 kts | 356° |
| 2026-04-20 11:17 | -34.84873 | -72.91668 | 38156 ft | 468 kts | 356° |
| 2026-04-20 11:18 | -34.78360 | -72.91212 | 38163 ft | 469 kts | 356° |
| 2026-04-20 11:18 | -34.71850 | -72.90756 | 38153 ft | 468 kts | 356° |
| 2026-04-20 11:19 | -34.65350 | -72.90302 | 38162 ft | 468 kts | 356° |
| 2026-04-20 11:19 | -34.58845 | -72.89848 | 38164 ft | 468 kts | 356° |
| 2026-04-20 11:20 | -34.52344 | -72.89396 | 38133 ft | 468 kts | 355° |
| 2026-04-20 11:20 | -34.45851 | -72.88944 | 38149 ft | 467 kts | 355° |
| 2026-04-20 11:21 | -34.39369 | -72.88494 | 38168 ft | 466 kts | 355° |
| 2026-04-20 11:21 | -34.32941 | -72.88048 | 38168 ft | 466 kts | 355° |
| 2026-04-20 11:22 | -34.26478 | -72.87601 | 38140 ft | 465 kts | 355° |
| 2026-04-20 11:22 | -34.20034 | -72.87155 | 38165 ft | 464 kts | 355° |
| 2026-04-20 11:23 | -34.13590 | -72.86712 | 38177 ft | 463 kts | 355° |
| 2026-04-20 11:23 | -34.07152 | -72.86269 | 38173 ft | 464 kts | 355° |
| 2026-04-20 11:24 | -34.00704 | -72.85825 | 38160 ft | 463 kts | 354° |
| 2026-04-20 11:24 | -33.94269 | -72.85383 | 38174 ft | 464 kts | 354° |
| 2026-04-20 11:25 | -33.87821 | -72.84942 | 38181 ft | 464 kts | 354° |
| 2026-04-20 11:25 | -33.81367 | -72.84500 | 38180 ft | 464 kts | 354° |
| 2026-04-20 11:26 | -33.74919 | -72.84058 | 38170 ft | 464 kts | 354° |
| 2026-04-20 11:26 | -33.68474 | -72.83594 | 38178 ft | 464 kts | 354° |
| 2026-04-20 11:27 | -33.62029 | -72.83118 | 38182 ft | 464 kts | 354° |
| 2026-04-20 11:27 | -33.55588 | -72.82686 | 38182 ft | 464 kts | 354° |
| 2026-04-20 11:28 | -33.49150 | -72.82255 | 38171 ft | 463 kts | 354° |
| 2026-04-20 11:28 | -33.42770 | -72.81823 | 38180 ft | 462 kts | 354° |
| 2026-04-20 11:29 | -33.36354 | -72.81388 | 38174 ft | 462 kts | 354° |
| 2026-04-20 11:29 | -33.29943 | -72.80954 | 38185 ft | 461 kts | 354° |
| 2026-04-20 11:30 | -33.23536 | -72.80520 | 38168 ft | 460 kts | 353° |
| 2026-04-20 11:30 | -33.17150 | -72.80089 | 38178 ft | 459 kts | 353° |
| 2026-04-20 11:31 | -33.10774 | -72.79659 | 38189 ft | 459 kts | 353° |
| 2026-04-20 11:31 | -33.04397 | -72.79234 | 38184 ft | 459 kts | 353° |
| 2026-04-20 11:32 | -32.98023 | -72.78814 | 38159 ft | 458 kts | 353° |
| 2026-04-20 11:32 | -32.91667 | -72.78395 | 38177 ft | 457 kts | 353° |
| 2026-04-20 11:33 | -32.85314 | -72.77977 | 38190 ft | 457 kts | 353° |
| 2026-04-20 11:33 | -32.78956 | -72.77559 | 38175 ft | 458 kts | 353° |
| 2026-04-20 11:34 | -32.72597 | -72.77141 | 38172 ft | 458 kts | 353° |
| 2026-04-20 11:34 | -32.66228 | -72.76719 | 38176 ft | 458 kts | 353° |
| 2026-04-20 11:35 | -32.59852 | -72.76296 | 38174 ft | 459 kts | 353° |
| 2026-04-20 11:35 | -32.53478 | -72.75873 | 38183 ft | 459 kts | 353° |
| 2026-04-20 11:36 | -32.47104 | -72.75451 | 38158 ft | 458 kts | 353° |
| 2026-04-20 11:36 | -32.40737 | -72.75030 | 38174 ft | 458 kts | 353° |
| 2026-04-20 11:37 | -32.34380 | -72.74611 | 38177 ft | 458 kts | 353° |
| 2026-04-20 11:37 | -32.24828 | -72.73982 | 38177 ft | 458 kts | 353° |
| 2026-04-20 11:38 | -32.18470 | -72.73564 | 38171 ft | 457 kts | 353° |
| 2026-04-20 11:38 | -32.12117 | -72.73147 | 38171 ft | 457 kts | 353° |
| 2026-04-20 11:39 | -32.05763 | -72.72731 | 38175 ft | 457 kts | 353° |
| 2026-04-20 11:39 | -31.99407 | -72.72316 | 38175 ft | 458 kts | 353° |
| 2026-04-20 11:40 | -31.93052 | -72.71900 | 38153 ft | 457 kts | 353° |
| 2026-04-20 11:40 | -31.86737 | -72.71487 | 38169 ft | 457 kts | 353° |
| 2026-04-20 11:41 | -31.80379 | -72.71073 | 38171 ft | 458 kts | 353° |
| 2026-04-20 11:41 | -31.74018 | -72.70660 | 38169 ft | 458 kts | 353° |
| 2026-04-20 11:42 | -31.67650 | -72.70245 | 38131 ft | 458 kts | 352° |
| 2026-04-20 11:42 | -31.61295 | -72.69832 | 38160 ft | 458 kts | 352° |
| 2026-04-20 11:43 | -31.54935 | -72.69420 | 38169 ft | 458 kts | 352° |
| 2026-04-20 11:43 | -31.48576 | -72.69009 | 38165 ft | 458 kts | 352° |
| 2026-04-20 11:44 | -31.42209 | -72.68598 | 38117 ft | 458 kts | 352° |
| 2026-04-20 11:44 | -31.35849 | -72.68186 | 38158 ft | 458 kts | 352° |
| 2026-04-20 11:45 | -31.29490 | -72.67777 | 38163 ft | 458 kts | 352° |
| 2026-04-20 11:45 | -31.23126 | -72.67367 | 38166 ft | 458 kts | 352° |
| 2026-04-20 11:46 | -31.16760 | -72.66958 | 38162 ft | 458 kts | 352° |
| 2026-04-20 11:46 | -31.10395 | -72.66548 | 38154 ft | 458 kts | 352° |
| 2026-04-20 11:47 | -31.04035 | -72.66141 | 38158 ft | 458 kts | 352° |
| 2026-04-20 11:47 | -30.97707 | -72.65738 | 38154 ft | 459 kts | 352° |
| 2026-04-20 11:48 | -30.91330 | -72.65333 | 38153 ft | 459 kts | 352° |
| 2026-04-20 11:48 | -30.84949 | -72.64926 | 38146 ft | 459 kts | 352° |
| 2026-04-20 11:49 | -30.78576 | -72.64522 | 38145 ft | 459 kts | 352° |
| 2026-04-20 11:49 | -30.72189 | -72.64117 | 38152 ft | 459 kts | 352° |
| 2026-04-20 11:50 | -30.65798 | -72.63712 | 38147 ft | 460 kts | 352° |
| 2026-04-20 11:50 | -30.59404 | -72.63308 | 38119 ft | 460 kts | 352° |
| 2026-04-20 11:51 | -30.53013 | -72.62903 | 38136 ft | 460 kts | 352° |
| 2026-04-20 11:51 | -30.46616 | -72.62500 | 38144 ft | 460 kts | 352° |
| 2026-04-20 11:52 | -30.41302 | -72.62165 | 38141 ft | 461 kts | 352° |
| 2026-04-20 11:52 | -30.34901 | -72.61762 | 38142 ft | 461 kts | 352° |
| 2026-04-20 11:53 | -30.27465 | -72.61294 | 38132 ft | 460 kts | 352° |
| 2026-04-20 11:53 | -30.22100 | -72.60958 | 38138 ft | 461 kts | 352° |
| 2026-04-20 11:54 | -30.15685 | -72.60557 | 38137 ft | 462 kts | 352° |
| 2026-04-20 11:54 | -30.09260 | -72.60155 | 38122 ft | 463 kts | 352° |
| 2026-04-20 11:55 | -30.02827 | -72.59752 | 38136 ft | 463 kts | 352° |
| 2026-04-20 11:55 | -29.96432 | -72.59352 | 38133 ft | 463 kts | 352° |
| 2026-04-20 11:56 | -29.90002 | -72.58950 | 38136 ft | 463 kts | 352° |
| 2026-04-20 11:56 | -29.83570 | -72.58549 | 38136 ft | 463 kts | 352° |
| 2026-04-20 11:57 | -29.77140 | -72.58149 | 38102 ft | 462 kts | 352° |
| 2026-04-20 11:57 | -29.70722 | -72.57751 | 38119 ft | 462 kts | 352° |
| 2026-04-20 11:58 | -29.64294 | -72.57350 | 38126 ft | 463 kts | 352° |
| 2026-04-20 11:58 | -29.57860 | -72.56944 | 38133 ft | 463 kts | 352° |
| 2026-04-20 11:59 | -29.51420 | -72.56538 | 38129 ft | 464 kts | 352° |
| 2026-04-20 11:59 | -29.44983 | -72.56132 | 38124 ft | 463 kts | 353° |
| 2026-04-20 12:00 | -29.38542 | -72.55727 | 38135 ft | 464 kts | 353° |
| 2026-04-20 12:00 | -29.32091 | -72.55323 | 38132 ft | 464 kts | 353° |
| 2026-04-20 12:01 | -29.25631 | -72.54918 | 38130 ft | 465 kts | 353° |
| 2026-04-20 12:01 | -29.19165 | -72.54513 | 38120 ft | 465 kts | 353° |
| 2026-04-20 12:02 | -29.12703 | -72.54109 | 38122 ft | 465 kts | 353° |
| 2026-04-20 12:02 | -29.06230 | -72.53705 | 38127 ft | 466 kts | 353° |
| 2026-04-20 12:03 | -28.99753 | -72.53301 | 38126 ft | 466 kts | 353° |
| 2026-04-20 12:03 | -28.93276 | -72.52897 | 38096 ft | 466 kts | 353° |
| 2026-04-20 12:04 | -28.86844 | -72.52498 | 38119 ft | 466 kts | 353° |
| 2026-04-20 12:04 | -28.80363 | -72.52110 | 38128 ft | 467 kts | 353° |
| 2026-04-20 12:05 | -28.73873 | -72.51725 | 38120 ft | 467 kts | 353° |
| 2026-04-20 12:05 | -28.67383 | -72.51338 | 38120 ft | 468 kts | 353° |
| 2026-04-20 12:06 | -28.60877 | -72.50949 | 38117 ft | 468 kts | 353° |
| 2026-04-20 12:06 | -28.54383 | -72.50562 | 38122 ft | 468 kts | 353° |
| 2026-04-20 12:07 | -28.47854 | -72.50172 | 38120 ft | 469 kts | 353° |
| 2026-04-20 12:07 | -28.41327 | -72.49773 | 38120 ft | 470 kts | 353° |
| 2026-04-20 12:08 | -28.34807 | -72.49373 | 38114 ft | 469 kts | 353° |
| 2026-04-20 12:08 | -28.28281 | -72.48973 | 38119 ft | 470 kts | 353° |
| 2026-04-20 12:09 | -28.21746 | -72.48575 | 38122 ft | 470 kts | 353° |
| 2026-04-20 12:09 | -28.15247 | -72.48180 | 38119 ft | 471 kts | 353° |
| 2026-04-20 12:10 | -28.08702 | -72.47781 | 38091 ft | 471 kts | 353° |
| 2026-04-20 12:10 | -28.02164 | -72.47384 | 38116 ft | 471 kts | 353° |
| 2026-04-20 12:11 | -27.95619 | -72.46987 | 38132 ft | 471 kts | 353° |
| 2026-04-20 12:11 | -27.89073 | -72.46591 | 38131 ft | 471 kts | 353° |
| 2026-04-20 12:12 | -27.82520 | -72.46194 | 38117 ft | 472 kts | 353° |
| 2026-04-20 12:12 | -27.75963 | -72.45797 | 38112 ft | 471 kts | 353° |
| 2026-04-20 12:13 | -27.69409 | -72.45401 | 38119 ft | 471 kts | 353° |
| 2026-04-20 12:13 | -27.62859 | -72.45006 | 38120 ft | 471 kts | 353° |
| 2026-04-20 12:14 | -27.56365 | -72.44692 | 38117 ft | 466 kts | 349° |
| 2026-04-20 12:14 | -27.50041 | -72.45497 | 38184 ft | 451 kts | 339° |
| 2026-04-20 12:15 | -27.47058 | -72.46309 | 38997 ft | 430 kts | 334° |
| 2026-04-20 12:15 | -27.44236 | -72.47272 | 39701 ft | 419 kts | 334° |
| 2026-04-20 12:15 | -27.41453 | -72.48240 | 40098 ft | 419 kts | 334° |
| 2026-04-20 12:15 | -27.38645 | -72.49230 | 40104 ft | 428 kts | 334° |
| 2026-04-20 12:16 | -27.32870 | -72.51260 | 40127 ft | 442 kts | 334° |
| 2026-04-20 12:16 | -27.26994 | -72.53287 | 40109 ft | 441 kts | 334° |
| 2026-04-20 12:17 | -27.21134 | -72.55289 | 40111 ft | 438 kts | 334° |
| 2026-04-20 12:17 | -27.15308 | -72.57280 | 40114 ft | 436 kts | 334° |
| 2026-04-20 12:18 | -27.09518 | -72.59261 | 40116 ft | 435 kts | 334° |
| 2026-04-20 12:18 | -27.03737 | -72.61238 | 40128 ft | 434 kts | 334° |
| 2026-04-20 12:19 | -26.97959 | -72.63213 | 40102 ft | 433 kts | 334° |
| 2026-04-20 12:19 | -26.92229 | -72.65169 | 40110 ft | 433 kts | 334° |
| 2026-04-20 12:20 | -26.86465 | -72.67134 | 40119 ft | 433 kts | 334° |
| 2026-04-20 12:20 | -26.80678 | -72.69106 | 40121 ft | 435 kts | 334° |
| 2026-04-20 12:21 | -26.74876 | -72.71080 | 40121 ft | 435 kts | 334° |
| 2026-04-20 12:21 | -26.69075 | -72.73050 | 40089 ft | 436 kts | 334° |
| 2026-04-20 12:22 | -26.63257 | -72.75024 | 40109 ft | 437 kts | 334° |
| 2026-04-20 12:22 | -26.57471 | -72.76986 | 40118 ft | 437 kts | 334° |
| 2026-04-20 12:23 | -26.51641 | -72.78960 | 40117 ft | 438 kts | 334° |
| 2026-04-20 12:23 | -26.45804 | -72.80935 | 40117 ft | 438 kts | 334° |
| 2026-04-20 12:24 | -26.39959 | -72.82910 | 40094 ft | 438 kts | 335° |
| 2026-04-20 12:24 | -26.34125 | -72.84879 | 40108 ft | 439 kts | 335° |
| 2026-04-20 12:25 | -26.28284 | -72.86849 | 40118 ft | 439 kts | 335° |
| 2026-04-20 12:25 | -26.22425 | -72.88823 | 40113 ft | 439 kts | 335° |
| 2026-04-20 12:26 | -26.16582 | -72.90789 | 40115 ft | 439 kts | 335° |
| 2026-04-20 12:26 | -26.10759 | -72.92746 | 40098 ft | 439 kts | 335° |
| 2026-04-20 12:27 | -26.04878 | -72.94721 | 40115 ft | 439 kts | 335° |
| 2026-04-20 12:27 | -25.99062 | -72.96673 | 40122 ft | 439 kts | 335° |
| 2026-04-20 12:28 | -25.93209 | -72.98635 | 40114 ft | 440 kts | 335° |
| 2026-04-20 12:28 | -25.87340 | -73.00600 | 40115 ft | 440 kts | 335° |
| 2026-04-20 12:29 | -25.81477 | -73.02560 | 40106 ft | 440 kts | 335° |
| 2026-04-20 12:29 | -25.75615 | -73.04518 | 40113 ft | 440 kts | 335° |
| 2026-04-20 12:30 | -25.69744 | -73.06478 | 40115 ft | 440 kts | 335° |
| 2026-04-20 12:30 | -25.63866 | -73.08438 | 40114 ft | 441 kts | 335° |
| 2026-04-20 12:31 | -25.57986 | -73.10396 | 40112 ft | 441 kts | 335° |
| 2026-04-20 12:31 | -25.52109 | -73.12351 | 40111 ft | 441 kts | 335° |
| 2026-04-20 12:32 | -25.46236 | -73.14303 | 40111 ft | 441 kts | 335° |
| 2026-04-20 12:32 | -25.40342 | -73.16260 | 40112 ft | 442 kts | 335° |
| 2026-04-20 12:33 | -25.34492 | -73.18201 | 40112 ft | 442 kts | 335° |
| 2026-04-20 12:33 | -25.28599 | -73.20154 | 40115 ft | 442 kts | 335° |
| 2026-04-20 12:34 | -25.22693 | -73.22108 | 40100 ft | 442 kts | 335° |
| 2026-04-20 12:34 | -25.16798 | -73.24058 | 40109 ft | 442 kts | 336° |
| 2026-04-20 12:35 | -25.10890 | -73.26010 | 40110 ft | 443 kts | 336° |
| 2026-04-20 12:35 | -25.04988 | -73.27958 | 40109 ft | 443 kts | 336° |
| 2026-04-20 12:36 | -24.99081 | -73.29905 | 40085 ft | 443 kts | 336° |
| 2026-04-20 12:36 | -24.93211 | -73.31838 | 40103 ft | 443 kts | 336° |
| 2026-04-20 12:37 | -24.87304 | -73.33782 | 40104 ft | 443 kts | 336° |
| 2026-04-20 12:37 | -24.81390 | -73.35726 | 40102 ft | 443 kts | 336° |
| 2026-04-20 12:38 | -24.75465 | -73.37671 | 40113 ft | 443 kts | 336° |
| 2026-04-20 12:38 | -24.70536 | -73.39289 | 40107 ft | 443 kts | 336° |
| 2026-04-20 12:39 | -24.61667 | -73.42195 | 40104 ft | 443 kts | 336° |
| 2026-04-20 12:40 | -24.55752 | -73.44131 | 40107 ft | 443 kts | 336° |
| 2026-04-20 12:40 | -24.49842 | -73.46064 | 40110 ft | 443 kts | 336° |
| 2026-04-20 12:41 | -24.43922 | -73.47997 | 40108 ft | 444 kts | 336° |
| 2026-04-20 12:41 | -24.38046 | -73.49915 | 40113 ft | 444 kts | 336° |
| 2026-04-20 12:42 | -24.32119 | -73.51847 | 40111 ft | 444 kts | 336° |
| 2026-04-20 12:42 | -24.26203 | -73.53774 | 40112 ft | 444 kts | 336° |
| 2026-04-20 12:43 | -24.20281 | -73.55701 | 40108 ft | 444 kts | 336° |
| 2026-04-20 12:43 | -24.14358 | -73.57627 | 40109 ft | 444 kts | 336° |
| 2026-04-20 12:44 | -24.08430 | -73.59553 | 40100 ft | 443 kts | 336° |
| 2026-04-20 12:44 | -24.02516 | -73.61472 | 40111 ft | 443 kts | 336° |
| 2026-04-20 12:45 | -23.96591 | -73.63393 | 40106 ft | 444 kts | 336° |
| 2026-04-20 12:45 | -23.90709 | -73.65300 | 40125 ft | 444 kts | 336° |
| 2026-04-20 12:46 | -23.84740 | -73.67234 | 40113 ft | 444 kts | 336° |
| 2026-04-20 12:46 | -23.78847 | -73.69142 | 40102 ft | 444 kts | 336° |
| 2026-04-20 12:47 | -23.72918 | -73.71060 | 40103 ft | 444 kts | 336° |
| 2026-04-20 12:47 | -23.66996 | -73.72973 | 40111 ft | 444 kts | 336° |
| 2026-04-20 12:48 | -23.61066 | -73.74888 | 40113 ft | 444 kts | 336° |
| 2026-04-20 12:48 | -23.55137 | -73.76800 | 40113 ft | 444 kts | 336° |
| 2026-04-20 12:49 | -23.49248 | -73.78698 | 40096 ft | 444 kts | 336° |
| 2026-04-20 12:49 | -23.43331 | -73.80602 | 40108 ft | 444 kts | 336° |
| 2026-04-20 12:50 | -23.37391 | -73.82513 | 40120 ft | 444 kts | 336° |
| 2026-04-20 12:50 | -23.31463 | -73.84418 | 40111 ft | 444 kts | 336° |
| 2026-04-20 12:51 | -23.25509 | -73.86329 | 40105 ft | 444 kts | 336° |
| 2026-04-20 12:51 | -23.19610 | -73.88221 | 40096 ft | 444 kts | 336° |
| 2026-04-20 12:52 | -23.13683 | -73.90120 | 40110 ft | 444 kts | 336° |
| 2026-04-20 12:52 | -23.07751 | -73.92020 | 40109 ft | 445 kts | 336° |
| 2026-04-20 12:53 | -23.01810 | -73.93920 | 40107 ft | 445 kts | 336° |
| 2026-04-20 12:53 | -22.95856 | -73.95822 | 40110 ft | 445 kts | 336° |
| 2026-04-20 12:54 | -22.89909 | -73.97721 | 40095 ft | 445 kts | 336° |
| 2026-04-20 12:54 | -22.83967 | -73.99616 | 40107 ft | 445 kts | 336° |
| 2026-04-20 12:55 | -22.78044 | -74.01504 | 40115 ft | 445 kts | 336° |
| 2026-04-20 12:55 | -22.72105 | -74.03395 | 40106 ft | 446 kts | 336° |
| 2026-04-20 12:56 | -22.66131 | -74.05295 | 40106 ft | 445 kts | 336° |
| 2026-04-20 12:56 | -22.60176 | -74.07187 | 40088 ft | 445 kts | 336° |
| 2026-04-20 12:57 | -22.54266 | -74.09063 | 40106 ft | 445 kts | 336° |
| 2026-04-20 12:57 | -22.48318 | -74.10950 | 40110 ft | 445 kts | 336° |
| 2026-04-20 12:58 | -22.42373 | -74.12834 | 40103 ft | 445 kts | 336° |
| 2026-04-20 12:58 | -22.36426 | -74.14717 | 40104 ft | 445 kts | 336° |
| 2026-04-20 12:59 | -22.30481 | -74.16598 | 40087 ft | 445 kts | 336° |
| 2026-04-20 12:59 | -22.24533 | -74.18478 | 40100 ft | 445 kts | 336° |
| 2026-04-20 13:00 | -22.18621 | -74.20346 | 40103 ft | 445 kts | 336° |
| 2026-04-20 13:00 | -22.12668 | -74.22224 | 40107 ft | 445 kts | 336° |
| 2026-04-20 13:01 | -22.06714 | -74.24102 | 40106 ft | 446 kts | 336° |
| 2026-04-20 13:01 | -22.00756 | -74.25978 | 40079 ft | 446 kts | 336° |
| 2026-04-20 13:02 | -21.94795 | -74.27854 | 40098 ft | 446 kts | 336° |
| 2026-04-20 13:02 | -21.88831 | -74.29729 | 40110 ft | 446 kts | 336° |
| 2026-04-20 13:03 | -21.82877 | -74.31600 | 40102 ft | 446 kts | 336° |
| 2026-04-20 13:03 | -21.76916 | -74.33471 | 40104 ft | 446 kts | 336° |
| 2026-04-20 13:04 | -21.70991 | -74.35329 | 40108 ft | 446 kts | 336° |
| 2026-04-20 13:04 | -21.65027 | -74.37198 | 40108 ft | 445 kts | 337° |
| 2026-04-20 13:05 | -21.59076 | -74.39062 | 40103 ft | 445 kts | 337° |
| 2026-04-20 13:05 | -21.53134 | -74.40920 | 40106 ft | 445 kts | 337° |
| 2026-04-20 13:06 | -21.47193 | -74.42777 | 40105 ft | 444 kts | 337° |
| 2026-04-20 13:06 | -21.41266 | -74.44628 | 40105 ft | 444 kts | 337° |
| 2026-04-20 13:07 | -21.35336 | -74.46479 | 40101 ft | 444 kts | 337° |
| 2026-04-20 13:07 | -21.29443 | -74.48317 | 40106 ft | 443 kts | 337° |
| 2026-04-20 13:08 | -21.23515 | -74.50164 | 40102 ft | 443 kts | 337° |
| 2026-04-20 13:08 | -21.17583 | -74.52011 | 40103 ft | 444 kts | 337° |
| 2026-04-20 13:09 | -21.11642 | -74.53857 | 40104 ft | 444 kts | 337° |
| 2026-04-20 13:09 | -21.05744 | -74.55689 | 40088 ft | 444 kts | 337° |
| 2026-04-20 13:10 | -20.99807 | -74.57532 | 40097 ft | 444 kts | 337° |
| 2026-04-20 13:10 | -20.93869 | -74.59375 | 40107 ft | 444 kts | 337° |
| 2026-04-20 13:11 | -20.87951 | -74.61210 | 40104 ft | 444 kts | 337° |
| 2026-04-20 13:11 | -20.82004 | -74.63052 | 40104 ft | 445 kts | 337° |
| 2026-04-20 13:12 | -20.76058 | -74.64892 | 40088 ft | 445 kts | 338° |
| 2026-04-20 13:12 | -20.70107 | -74.66733 | 40104 ft | 445 kts | 338° |
| 2026-04-20 13:13 | -20.64187 | -74.68562 | 40105 ft | 445 kts | 338° |
| 2026-04-20 13:13 | -20.58233 | -74.70400 | 40096 ft | 445 kts | 338° |
| 2026-04-20 13:14 | -20.52283 | -74.72235 | 40098 ft | 445 kts | 338° |
| 2026-04-20 13:14 | -20.46314 | -74.74075 | 40114 ft | 445 kts | 338° |
| 2026-04-20 13:15 | -20.40355 | -74.75911 | 40103 ft | 445 kts | 338° |
| 2026-04-20 13:15 | -20.34394 | -74.77746 | 40106 ft | 445 kts | 338° |
| 2026-04-20 13:16 | -20.28473 | -74.79566 | 40100 ft | 445 kts | 338° |
| 2026-04-20 13:16 | -20.22517 | -74.81396 | 40111 ft | 446 kts | 338° |
| 2026-04-20 13:17 | -20.16557 | -74.83226 | 40106 ft | 446 kts | 338° |
| 2026-04-20 13:17 | -20.10588 | -74.85058 | 40090 ft | 446 kts | 339° |
| 2026-04-20 13:18 | -20.04622 | -74.86886 | 40096 ft | 446 kts | 339° |
| 2026-04-20 13:18 | -19.98696 | -74.88701 | 40105 ft | 446 kts | 339° |
| 2026-04-20 13:19 | -19.92724 | -74.90529 | 40104 ft | 446 kts | 339° |
| 2026-04-20 13:19 | -19.86745 | -74.92357 | 40104 ft | 447 kts | 339° |
| 2026-04-20 13:20 | -19.80771 | -74.94183 | 40084 ft | 447 kts | 339° |
| 2026-04-20 13:20 | -19.74797 | -74.96007 | 40098 ft | 447 kts | 339° |
| 2026-04-20 13:21 | -19.68808 | -74.97834 | 40099 ft | 447 kts | 339° |
| 2026-04-20 13:21 | -19.62821 | -74.99659 | 40098 ft | 448 kts | 339° |
| 2026-04-20 13:22 | -19.56828 | -75.01485 | 40096 ft | 448 kts | 339° |
| 2026-04-20 13:22 | -19.50836 | -75.03308 | 40095 ft | 448 kts | 339° |
| 2026-04-20 13:23 | -19.44867 | -75.05124 | 40091 ft | 448 kts | 339° |
| 2026-04-20 13:23 | -19.38855 | -75.06951 | 40105 ft | 449 kts | 339° |
| 2026-04-20 13:24 | -19.32835 | -75.08779 | 40097 ft | 449 kts | 339° |
| 2026-04-20 13:24 | -19.26853 | -75.10594 | 40094 ft | 449 kts | 339° |
| 2026-04-20 13:25 | -19.20837 | -75.12418 | 40097 ft | 449 kts | 339° |
| 2026-04-20 13:25 | -19.15837 | -75.13933 | 40083 ft | 449 kts | 340° |
| 2026-04-20 13:26 | -19.09841 | -75.15749 | 40091 ft | 449 kts | 340° |
| 2026-04-20 13:26 | -19.03824 | -75.17570 | 40095 ft | 450 kts | 340° |
| 2026-04-20 13:27 | -18.97799 | -75.19391 | 40094 ft | 450 kts | 340° |
| 2026-04-20 13:27 | -18.91766 | -75.21214 | 40094 ft | 451 kts | 340° |
| 2026-04-20 13:28 | -18.85739 | -75.23034 | 40074 ft | 451 kts | 340° |
| 2026-04-20 13:28 | -18.79703 | -75.24855 | 40097 ft | 451 kts | 340° |
| 2026-04-20 13:29 | -18.73694 | -75.26666 | 40082 ft | 452 kts | 340° |
| 2026-04-20 13:29 | -18.67628 | -75.28493 | 40084 ft | 452 kts | 340° |
| 2026-04-20 13:30 | -18.61573 | -75.30315 | 40082 ft | 452 kts | 340° |
| 2026-04-20 13:30 | -18.55528 | -75.32134 | 40093 ft | 452 kts | 340° |
| 2026-04-20 13:31 | -18.49508 | -75.33943 | 40091 ft | 452 kts | 341° |
| 2026-04-20 13:31 | -18.43447 | -75.35764 | 40085 ft | 452 kts | 341° |
| 2026-04-20 13:32 | -18.37373 | -75.37587 | 40089 ft | 452 kts | 341° |
| 2026-04-20 13:32 | -18.31345 | -75.39365 | 40088 ft | 452 kts | 341° |
| 2026-04-20 13:33 | -18.25286 | -75.41074 | 40085 ft | 452 kts | 342° |
| 2026-04-20 13:33 | -18.19155 | -75.42793 | 40091 ft | 452 kts | 341° |
| 2026-04-20 13:34 | -18.13100 | -75.44499 | 40079 ft | 452 kts | 341° |
| 2026-04-20 13:34 | -18.07018 | -75.46218 | 40090 ft | 452 kts | 341° |
| 2026-04-20 13:35 | -18.00938 | -75.47936 | 40088 ft | 451 kts | 341° |
| 2026-04-20 13:35 | -17.94914 | -75.49637 | 40087 ft | 451 kts | 341° |
| 2026-04-20 13:36 | -17.88838 | -75.51352 | 40071 ft | 451 kts | 342° |
| 2026-04-20 13:36 | -17.82777 | -75.53061 | 40088 ft | 451 kts | 342° |
| 2026-04-20 13:37 | -17.76707 | -75.54771 | 40087 ft | 451 kts | 342° |
| 2026-04-20 13:37 | -17.70647 | -75.56477 | 40086 ft | 451 kts | 342° |
| 2026-04-20 13:38 | -17.64621 | -75.58173 | 40082 ft | 451 kts | 342° |
| 2026-04-20 13:38 | -17.58559 | -75.59877 | 40084 ft | 451 kts | 342° |
| 2026-04-20 13:39 | -17.52494 | -75.61582 | 40077 ft | 451 kts | 342° |
| 2026-04-20 13:39 | -17.46426 | -75.63285 | 40080 ft | 451 kts | 342° |
| 2026-04-20 13:40 | -17.40406 | -75.64974 | 40084 ft | 451 kts | 342° |
| 2026-04-20 13:40 | -17.34316 | -75.66682 | 40082 ft | 452 kts | 342° |
| 2026-04-20 13:41 | -17.28224 | -75.68389 | 40082 ft | 452 kts | 342° |
| 2026-04-20 13:41 | -17.22138 | -75.70093 | 40075 ft | 452 kts | 343° |
| 2026-04-20 13:42 | -17.16091 | -75.71785 | 40075 ft | 453 kts | 343° |
| 2026-04-20 13:42 | -17.06929 | -75.74346 | 40082 ft | 453 kts | 343° |
| 2026-04-20 13:43 | -17.00827 | -75.76051 | 40079 ft | 454 kts | 343° |
| 2026-04-20 13:43 | -16.94765 | -75.77743 | 40081 ft | 454 kts | 343° |
| 2026-04-20 13:44 | -16.88654 | -75.79448 | 40078 ft | 454 kts | 343° |
| 2026-04-20 13:44 | -16.82542 | -75.81152 | 40073 ft | 454 kts | 343° |
| 2026-04-20 13:45 | -16.76435 | -75.82853 | 40078 ft | 454 kts | 343° |
| 2026-04-20 13:45 | -16.70337 | -75.84550 | 40078 ft | 454 kts | 343° |
| 2026-04-20 13:46 | -16.64269 | -75.86239 | 40079 ft | 454 kts | 343° |
| 2026-04-20 13:46 | -16.58163 | -75.87936 | 40080 ft | 454 kts | 343° |
| 2026-04-20 13:47 | -16.52053 | -75.89634 | 40069 ft | 454 kts | 343° |
| 2026-04-20 13:47 | -16.45937 | -75.91333 | 40085 ft | 455 kts | 343° |
| 2026-04-20 13:48 | -16.39840 | -75.93024 | 40078 ft | 455 kts | 343° |
| 2026-04-20 13:48 | -16.33707 | -75.94725 | 40074 ft | 456 kts | 343° |
| 2026-04-20 13:49 | -16.27631 | -75.96409 | 40074 ft | 456 kts | 343° |
| 2026-04-20 13:49 | -16.21460 | -75.98118 | 40067 ft | 456 kts | 343° |
| 2026-04-20 13:50 | -16.15337 | -75.99813 | 40076 ft | 456 kts | 343° |
| 2026-04-20 13:50 | -16.09179 | -76.01516 | 40070 ft | 457 kts | 343° |
| 2026-04-20 13:51 | -16.03014 | -76.03220 | 40073 ft | 457 kts | 343° |
| 2026-04-20 13:51 | -15.96899 | -76.04909 | 40067 ft | 457 kts | 343° |
| 2026-04-20 13:52 | -15.90741 | -76.06609 | 40069 ft | 457 kts | 343° |
| 2026-04-20 13:52 | -15.84591 | -76.08306 | 40070 ft | 457 kts | 344° |
| 2026-04-20 13:53 | -15.78443 | -76.10001 | 40074 ft | 457 kts | 344° |
| 2026-04-20 13:53 | -15.72281 | -76.11699 | 40071 ft | 458 kts | 344° |
| 2026-04-20 13:54 | -15.66116 | -76.13397 | 40074 ft | 458 kts | 344° |
| 2026-04-20 13:54 | -15.59983 | -76.15084 | 40074 ft | 458 kts | 344° |
| 2026-04-20 13:55 | -15.53821 | -76.16779 | 40062 ft | 458 kts | 344° |
| 2026-04-20 13:55 | -15.47661 | -76.18472 | 40067 ft | 458 kts | 344° |
| 2026-04-20 13:56 | -15.41495 | -76.20166 | 40069 ft | 458 kts | 344° |
| 2026-04-20 13:56 | -15.35356 | -76.21851 | 40068 ft | 458 kts | 344° |
| 2026-04-20 13:57 | -15.29195 | -76.23542 | 40068 ft | 459 kts | 344° |
| 2026-04-20 13:57 | -15.22986 | -76.25244 | 40068 ft | 459 kts | 344° |
| 2026-04-20 13:58 | -15.16854 | -76.26924 | 40062 ft | 459 kts | 344° |
| 2026-04-20 13:58 | -15.10681 | -76.28615 | 40070 ft | 459 kts | 344° |
| 2026-04-20 13:59 | -15.04484 | -76.30311 | 40065 ft | 460 kts | 344° |
| 2026-04-20 13:59 | -14.98261 | -76.32013 | 40065 ft | 460 kts | 344° |
| 2026-04-20 14:00 | -14.92119 | -76.33692 | 40066 ft | 460 kts | 344° |
| 2026-04-20 14:00 | -14.85895 | -76.35393 | 40065 ft | 460 kts | 344° |
| 2026-04-20 14:01 | -14.79707 | -76.37082 | 40062 ft | 460 kts | 344° |
| 2026-04-20 14:01 | -14.73535 | -76.38766 | 40062 ft | 460 kts | 344° |
| 2026-04-20 14:02 | -14.67332 | -76.40458 | 40062 ft | 460 kts | 344° |
| 2026-04-20 14:02 | -14.61177 | -76.42136 | 40062 ft | 460 kts | 344° |
| 2026-04-20 14:03 | -14.54978 | -76.43825 | 40062 ft | 460 kts | 344° |
| 2026-04-20 14:03 | -14.48769 | -76.45516 | 40056 ft | 460 kts | 345° |
| 2026-04-20 14:04 | -14.45095 | -76.46515 | 40064 ft | 460 kts | 345° |
| 2026-04-20 14:53 | -14.42968 | -76.47094 | 39962 ft | 459 kts | 345° |
| 2026-04-20 14:54 | -14.39964 | -76.47911 | 40020 ft | 448 kts | 345° |
| 2026-04-20 14:54 | -14.33878 | -76.49566 | 40064 ft | 458 kts | 345° |
| 2026-04-20 14:55 | -14.27624 | -76.51143 | 40064 ft | 466 kts | 349° |
| 2026-04-20 14:55 | -14.21223 | -76.51775 | 39805 ft | 454 kts | 355° |
| 2026-04-20 14:55 | -14.18131 | -76.51944 | 39216 ft | 452 kts | 356° |
| 2026-04-20 14:56 | -14.14939 | -76.52117 | 38247 ft | 457 kts | 356° |
| 2026-04-20 14:56 | -14.11737 | -76.52296 | 37041 ft | 466 kts | 356° |
| 2026-04-20 14:56 | -14.08497 | -76.52485 | 35818 ft | 477 kts | 355° |
| 2026-04-20 14:56 | -14.05130 | -76.52688 | 34607 ft | 486 kts | 355° |
| 2026-04-20 14:57 | -14.01761 | -76.52895 | 33370 ft | 495 kts | 355° |
| 2026-04-20 14:57 | -13.98269 | -76.53112 | 32178 ft | 500 kts | 355° |
| 2026-04-20 14:57 | -13.94794 | -76.53328 | 31086 ft | 501 kts | 355° |
| 2026-04-20 14:57 | -13.91325 | -76.53543 | 30118 ft | 501 kts | 355° |
| 2026-04-20 14:58 | -13.87900 | -76.53755 | 29291 ft | 496 kts | 355° |
| 2026-04-20 14:58 | -13.84476 | -76.53966 | 28603 ft | 487 kts | 355° |
| 2026-04-20 14:58 | -13.81109 | -76.54174 | 27933 ft | 480 kts | 355° |
| 2026-04-20 14:58 | -13.77801 | -76.54379 | 27259 ft | 475 kts | 355° |
| 2026-04-20 14:59 | -13.74571 | -76.54578 | 26582 ft | 470 kts | 355° |
| 2026-04-20 14:59 | -13.71301 | -76.54781 | 25897 ft | 465 kts | 355° |
| 2026-04-20 14:59 | -13.68113 | -76.54978 | 25237 ft | 461 kts | 355° |
| 2026-04-20 14:59 | -13.64923 | -76.55175 | 24611 ft | 457 kts | 355° |
| 2026-04-20 15:00 | -13.61771 | -76.55370 | 24014 ft | 452 kts | 356° |
| 2026-04-20 15:00 | -13.58631 | -76.55565 | 23387 ft | 448 kts | 356° |
| 2026-04-20 15:00 | -13.55582 | -76.55753 | 22708 ft | 443 kts | 356° |
| 2026-04-20 15:00 | -13.52535 | -76.55941 | 22127 ft | 437 kts | 356° |
| 2026-04-20 15:01 | -13.49489 | -76.56129 | 21526 ft | 431 kts | 356° |
| 2026-04-20 15:01 | -13.46544 | -76.56310 | 20940 ft | 426 kts | 356° |
| 2026-04-20 15:01 | -13.43599 | -76.56492 | 20352 ft | 421 kts | 356° |
| 2026-04-20 15:01 | -13.40682 | -76.56672 | 19820 ft | 416 kts | 356° |
| 2026-04-20 15:02 | -13.37777 | -76.56851 | 19000 ft | 418 kts | 356° |
| 2026-04-20 15:02 | -13.34972 | -76.57024 | 18033 ft | 404 kts | 356° |
| 2026-04-20 15:02 | -13.32179 | -76.57196 | 16947 ft | 386 kts | 356° |
| 2026-04-20 15:02 | -13.29577 | -76.57356 | 15927 ft | 372 kts | 356° |
| 2026-04-20 15:03 | -13.27031 | -76.57513 | 14944 ft | 361 kts | 356° |
| 2026-04-20 15:03 | -13.24592 | -76.57664 | 14010 ft | 351 kts | 356° |
| 2026-04-20 15:03 | -13.22147 | -76.57815 | 12955 ft | 343 kts | 356° |
| 2026-04-20 15:03 | -13.19806 | -76.57959 | 12023 ft | 335 kts | 356° |
| 2026-04-20 15:04 | -13.17533 | -76.58099 | 11513 ft | 316 kts | 356° |
| 2026-04-20 15:04 | -13.15389 | -76.58231 | 10901 ft | 305 kts | 356° |
| 2026-04-20 15:04 | -13.13224 | -76.58365 | 9914 ft | 318 kts | 357° |
| 2026-04-20 15:04 | -13.11022 | -76.58500 | 8811 ft | 317 kts | 357° |
| 2026-04-20 15:05 | -13.08868 | -76.58632 | 8131 ft | 300 kts | 356° |
| 2026-04-20 15:05 | -13.06877 | -76.58755 | 7835 ft | 277 kts | 356° |
| 2026-04-20 15:05 | -13.04973 | -76.58872 | 7580 ft | 273 kts | 356° |
| 2026-04-20 15:05 | -13.03071 | -76.58989 | 7357 ft | 274 kts | 356° |
| 2026-04-20 15:06 | -13.01193 | -76.59104 | 7123 ft | 273 kts | 356° |
| 2026-04-20 15:06 | -12.99304 | -76.58949 | 6933 ft | 269 kts | 21° |
| 2026-04-20 15:06 | -12.97770 | -76.57907 | 6986 ft | 274 kts | 49° |
| 2026-04-20 15:06 | -12.96843 | -76.56208 | 6994 ft | 275 kts | 75° |
| 2026-04-20 15:07 | -12.96774 | -76.54291 | 6983 ft | 272 kts | 103° |
| 2026-04-20 15:07 | -12.97574 | -76.52580 | 6988 ft | 270 kts | 130° |
| 2026-04-20 15:07 | -12.99033 | -76.51392 | 6994 ft | 269 kts | 154° |
| 2026-04-20 15:07 | -13.00763 | -76.50663 | 6994 ft | 270 kts | 159° |
| 2026-04-20 15:08 | -13.02511 | -76.49975 | 6998 ft | 273 kts | 159° |
| 2026-04-20 15:08 | -13.04297 | -76.49276 | 7002 ft | 275 kts | 159° |
| 2026-04-20 15:08 | -13.05480 | -76.48811 | 7001 ft | 276 kts | 159° |
| 2026-04-20 15:08 | -13.07272 | -76.48104 | 6997 ft | 276 kts | 159° |
| 2026-04-20 15:09 | -13.09670 | -76.47150 | 6992 ft | 275 kts | 159° |
| 2026-04-20 15:09 | -13.10853 | -76.46678 | 6990 ft | 274 kts | 159° |
| 2026-04-20 15:09 | -13.13188 | -76.45742 | 6988 ft | 272 kts | 159° |
| 2026-04-20 15:09 | -13.14965 | -76.45028 | 6977 ft | 271 kts | 159° |
| 2026-04-20 15:10 | -13.16134 | -76.44558 | 6977 ft | 270 kts | 159° |
| 2026-04-20 15:10 | -13.18459 | -76.43623 | 6978 ft | 269 kts | 159° |
| 2026-04-20 15:10 | -13.20212 | -76.42917 | 6936 ft | 272 kts | 159° |
| 2026-04-20 15:10 | -13.21396 | -76.42441 | 6867 ft | 274 kts | 159° |
| 2026-04-20 15:11 | -13.23170 | -76.41727 | 6741 ft | 273 kts | 159° |
| 2026-04-20 15:11 | -13.24907 | -76.41028 | 6590 ft | 271 kts | 159° |
| 2026-04-20 15:11 | -13.26655 | -76.40324 | 6453 ft | 268 kts | 159° |
| 2026-04-20 15:11 | -13.28400 | -76.39621 | 6288 ft | 267 kts | 159° |
| 2026-04-20 15:12 | -13.30677 | -76.38704 | 6120 ft | 265 kts | 159° |
| 2026-04-20 15:12 | -13.31822 | -76.38242 | 6027 ft | 265 kts | 159° |
| 2026-04-20 15:12 | -13.33535 | -76.37552 | 5888 ft | 264 kts | 159° |
| 2026-04-20 15:12 | -13.35235 | -76.36867 | 5754 ft | 264 kts | 159° |
| 2026-04-20 15:13 | -13.36961 | -76.36171 | 5614 ft | 264 kts | 159° |
| 2026-04-20 15:13 | -13.38646 | -76.35491 | 5492 ft | 263 kts | 159° |
| 2026-04-20 15:13 | -13.40356 | -76.34802 | 5356 ft | 264 kts | 159° |
| 2026-04-20 15:13 | -13.42054 | -76.34117 | 5215 ft | 264 kts | 159° |
| 2026-04-20 15:14 | -13.43775 | -76.33423 | 5078 ft | 264 kts | 159° |
| 2026-04-20 15:14 | -13.45467 | -76.32740 | 4941 ft | 264 kts | 158° |
| 2026-04-20 15:14 | -13.47163 | -76.32055 | 4807 ft | 264 kts | 158° |
| 2026-04-20 15:14 | -13.48890 | -76.31358 | 4657 ft | 264 kts | 159° |
| 2026-04-20 15:15 | -13.50586 | -76.30673 | 4507 ft | 264 kts | 159° |
| 2026-04-20 15:15 | -13.52305 | -76.29979 | 4383 ft | 264 kts | 159° |
| 2026-04-20 15:15 | -13.54021 | -76.29288 | 4225 ft | 264 kts | 159° |
| 2026-04-20 15:15 | -13.55705 | -76.28607 | 4106 ft | 264 kts | 159° |
| 2026-04-20 15:16 | -13.57380 | -76.27883 | 3926 ft | 259 kts | 150° |
| 2026-04-20 15:16 | -13.58638 | -76.26585 | 3736 ft | 258 kts | 117° |
| 2026-04-20 15:16 | -13.59075 | -76.24828 | 3592 ft | 257 kts | 92° |
| 2026-04-20 15:16 | -13.58961 | -76.23020 | 3521 ft | 251 kts | 83° |
| 2026-04-20 15:17 | -13.58813 | -76.21196 | 3461 ft | 259 kts | 88° |
| 2026-04-20 15:17 | -13.58879 | -76.19362 | 3297 ft | 257 kts | 96° |
| 2026-04-20 15:17 | -13.59180 | -76.17595 | 3037 ft | 250 kts | 104° |
| 2026-04-20 15:17 | -13.59699 | -76.15923 | 2832 ft | 240 kts | 112° |
| 2026-04-20 15:18 | -13.60353 | -76.14400 | 2663 ft | 230 kts | 117° |
| 2026-04-20 15:18 | -13.61227 | -76.13082 | 2411 ft | 217 kts | 141° |
| 2026-04-20 15:18 | -13.62526 | -76.12548 | 2242 ft | 194 kts | 180° |
| 2026-04-20 15:18 | -13.63721 | -76.12943 | 2071 ft | 176 kts | 217° |
| 2026-04-20 15:19 | -13.64678 | -76.13740 | 1996 ft | 181 kts | 218° |
| 2026-04-20 15:19 | -13.65639 | -76.14533 | 1862 ft | 174 kts | 219° |
| 2026-04-20 15:19 | -13.66567 | -76.15331 | 1726 ft | 174 kts | 218° |
| 2026-04-20 15:19 | -13.67508 | -76.16134 | 1500 ft | 175 kts | 218° |
| 2026-04-20 15:20 | -13.68434 | -76.16919 | 1296 ft | 170 kts | 218° |
| 2026-04-20 15:20 | -13.69341 | -76.17688 | 1057 ft | 172 kts | 219° |